Time;durP1;ratioP1;P1;durP2;ratioP2;P2;SDS_P1;SDS_P2;PMS_P1;PMS_P2;Temp;Humidity;BMP_temperature;BMP_pressure;BME280_temperature;BME280_humidity;BME280_pressure;Samples;Min_cycle;Max_cycle;Signal;HPM_P1;HPM_P2
2022/08/17 00:00:56;;;;;;;8.20;7.50;;;20.10;98.00;;;;;;5067063;28;20839;-79
2022/08/17 00:03:25;;;;;;;9.33;8.63;;;20.10;98.10;;;;;;5070992;28;20460;-79
2022/08/17 00:05:54;;;;;;;8.33;7.70;;;20.00;98.20;;;;;;5084458;28;20566;-79
2022/08/17 00:08:25;;;;;;;9.27;8.50;;;20.00;98.50;;;;;;5079302;28;20448;-79
2022/08/17 00:10:53;;;;;;;9.30;8.47;;;19.90;99.00;;;;;;5082542;28;20462;-79
2022/08/17 00:13:24;;;;;;;9.00;8.30;;;19.80;99.40;;;;;;5079775;28;20444;-79
2022/08/17 00:15:55;;;;;;;9.57;8.70;;;19.80;99.40;;;;;;5065444;28;20511;-79
2022/08/17 00:18:22;;;;;;;8.37;7.37;;;19.80;99.60;;;;;;5067994;28;20454;-79
2022/08/17 00:20:48;;;;;;;8.93;8.17;;;19.80;99.60;;;;;;5085309;28;20485;-79
2022/08/17 00:23:16;;;;;;;9.00;8.30;;;19.80;99.70;;;;;;5065954;28;20455;-79
2022/08/17 00:25:45;;;;;;;13.77;8.73;;;19.80;99.60;;;;;;5065341;28;20491;-79
2022/08/17 00:28:13;;;;;;;9.20;8.33;;;19.70;99.70;;;;;;5081448;28;20454;-79
2022/08/17 00:30:40;;;;;;;9.10;8.47;;;19.70;99.90;;;;;;5084645;28;20447;-79
2022/08/17 00:33:11;;;;;;;9.33;8.47;;;19.70;99.80;;;;;;5068335;28;20481;-79
2022/08/17 00:35:39;;;;;;;8.40;7.70;;;19.60;99.80;;;;;;5082925;28;20460;-79
2022/08/17 00:38:08;;;;;;;8.33;7.60;;;19.60;99.90;;;;;;5068217;28;20449;-79
2022/08/17 00:40:37;;;;;;;8.03;7.40;;;19.60;99.90;;;;;;5067075;28;20457;-79
2022/08/17 00:43:14;;;;;;;8.27;7.50;;;19.60;99.90;;;;;;5084452;28;20444;-79
2022/08/17 00:45:42;;;;;;;9.87;8.87;;;19.60;99.90;;;;;;5081719;28;20482;-79
2022/08/17 00:48:10;;;;;;;8.43;7.63;;;19.60;99.90;;;;;;5084458;28;20477;-79
2022/08/17 00:50:40;;;;;;;8.40;7.77;;;19.50;99.90;;;;;;5071216;28;20814;-79
2022/08/17 00:53:07;;;;;;;8.57;7.97;;;19.40;99.90;;;;;;5064199;28;20447;-79
2022/08/17 00:55:34;;;;;;;9.10;8.20;;;19.40;99.90;;;;;;5076822;28;20454;-79
2022/08/17 00:58:05;;;;;;;9.63;8.93;;;19.40;99.90;;;;;;5077427;28;20839;-79
2022/08/17 01:00:36;;;;;;;9.80;7.90;;;19.40;99.90;;;;;;5063949;28;20452;-79
2022/08/17 01:03:09;;;;;;;9.10;8.47;;;19.40;99.90;;;;;;5070184;28;20451;-79
2022/08/17 01:05:39;;;;;;;8.80;8.07;;;19.40;99.90;;;;;;5082199;28;20484;-79
2022/08/17 01:08:08;;;;;;;8.53;7.90;;;19.40;99.90;;;;;;5077281;28;20452;-79
2022/08/17 01:10:39;;;;;;;9.27;8.43;;;19.40;99.90;;;;;;5074574;28;20451;-79
2022/08/17 01:13:06;;;;;;;9.30;8.50;;;19.30;99.90;;;;;;5077992;28;20447;-79
2022/08/17 01:15:37;;;;;;;10.00;9.20;;;19.30;99.90;;;;;;5064582;28;20440;-79
2022/08/17 01:18:05;;;;;;;9.10;8.40;;;19.30;99.90;;;;;;5067511;28;20803;-79
2022/08/17 01:20:32;;;;;;;7.77;7.07;;;19.30;99.90;;;;;;5083298;28;20452;-79
2022/08/17 01:23:01;;;;;;;8.43;7.83;;;19.30;99.90;;;;;;5069018;28;20471;-79
2022/08/17 01:25:28;;;;;;;9.40;8.80;;;19.30;99.90;;;;;;5063130;28;20492;-79
2022/08/17 01:27:55;;;;;;;9.20;8.40;;;19.30;99.90;;;;;;5076878;28;20514;-79
2022/08/17 01:30:22;;;;;;;8.63;7.93;;;19.30;99.90;;;;;;5083408;28;20472;-79
2022/08/17 01:32:49;;;;;;;9.00;8.30;;;19.30;99.90;;;;;;5070553;28;20832;-79
2022/08/17 01:35:15;;;;;;;8.83;8.13;;;19.20;99.90;;;;;;5082013;28;20456;-79
2022/08/17 01:37:42;;;;;;;8.43;7.83;;;19.20;99.90;;;;;;5072502;28;20453;-79
2022/08/17 01:40:16;;;;;;;9.07;8.47;;;19.20;99.90;;;;;;5073273;28;20545;-79
2022/08/17 01:42:48;;;;;;;10.20;9.40;;;19.20;99.90;;;;;;5083571;28;20447;-79
2022/08/17 01:45:18;;;;;;;8.77;7.97;;;19.10;99.90;;;;;;5072839;28;20523;-78
2022/08/17 01:47:45;;;;;;;9.77;8.77;;;19.10;99.90;;;;;;5083156;28;20447;-79
2022/08/17 01:50:16;;;;;;;9.23;8.53;;;19.10;99.90;;;;;;5073728;28;20502;-79
2022/08/17 01:52:43;;;;;;;9.80;8.50;;;19.10;99.90;;;;;;5063601;28;20440;-79
2022/08/17 01:55:13;;;;;;;7.97;7.37;;;19.00;99.90;;;;;;5070594;28;20495;-79
2022/08/17 01:57:40;;;;;;;9.13;8.43;;;18.90;99.90;;;;;;5078582;28;20463;-79
2022/08/17 02:00:09;;;;;;;8.80;8.10;;;19.00;99.90;;;;;;5062578;28;20503;-79
2022/08/17 02:02:36;;;;;;;8.10;7.50;;;19.00;99.90;;;;;;5065712;28;20456;-79
2022/08/17 02:05:03;;;;;;;8.43;7.73;;;19.00;99.90;;;;;;5082733;28;20455;-79
2022/08/17 02:07:30;;;;;;;8.10;7.50;;;19.00;99.90;;;;;;5080136;28;20486;-79
2022/08/17 02:09:57;;;;;;;9.13;8.40;;;19.00;99.90;;;;;;5068597;28;20471;-79
2022/08/17 02:12:25;;;;;;;8.37;7.77;;;19.00;99.90;;;;;;5082350;28;20455;-79
2022/08/17 02:14:52;;;;;;;9.80;8.90;;;19.10;99.90;;;;;;5042474;28;20449;-79
2022/08/17 02:17:19;;;;;;;9.10;8.40;;;19.00;99.90;;;;;;5042602;28;20463;-79
2022/08/17 02:19:45;;;;;;;8.50;7.90;;;19.00;99.90;;;;;;5079465;28;20478;-79
2022/08/17 02:22:12;;;;;;;9.40;8.50;;;19.10;99.90;;;;;;5073839;28;20455;-79
2022/08/17 02:24:39;;;;;;;8.30;7.70;;;19.10;99.90;;;;;;5063110;28;20455;-79
2022/08/17 02:27:07;;;;;;;8.77;8.07;;;19.10;99.90;;;;;;5066756;28;20525;-79
2022/08/17 02:29:35;;;;;;;8.30;7.70;;;19.20;99.90;;;;;;5073867;28;21023;-79
2022/08/17 02:32:02;;;;;;;9.10;8.33;;;19.20;99.90;;;;;;5061955;28;20459;-79
2022/08/17 02:34:28;;;;;;;8.43;7.77;;;19.20;99.90;;;;;;5070869;28;20460;-79
2022/08/17 02:36:55;;;;;;;9.10;8.40;;;19.20;99.90;;;;;;5082214;28;20450;-79
2022/08/17 02:39:22;;;;;;;8.67;7.97;;;19.20;99.90;;;;;;5076836;28;20471;-79
2022/08/17 02:41:49;;;;;;;9.30;8.50;;;19.30;99.90;;;;;;5066374;28;20445;-79
2022/08/17 02:44:15;;;;;;;8.33;7.77;;;19.30;99.90;;;;;;5082137;28;20972;-79
2022/08/17 02:46:43;;;;;;;8.57;7.97;;;19.30;99.90;;;;;;5071087;28;20476;-79
2022/08/17 02:49:10;;;;;;;9.33;8.53;;;19.30;99.90;;;;;;5061604;28;20464;-79
2022/08/17 02:51:37;;;;;;;8.97;8.37;;;19.30;99.90;;;;;;5064906;28;20451;-79
2022/08/17 02:54:04;;;;;;;10.17;9.20;;;19.30;99.90;;;;;;5081444;28;20452;-79
2022/08/17 02:56:30;;;;;;;9.20;8.40;;;19.30;99.90;;;;;;5073985;28;20452;-79
2022/08/17 02:58:57;;;;;;;8.50;7.90;;;19.20;99.90;;;;;;5067216;28;20471;-79
2022/08/17 03:01:24;;;;;;;9.13;8.33;;;19.20;99.90;;;;;;5075253;28;20484;-79
2022/08/17 03:03:52;;;;;;;8.87;8.27;;;19.20;99.90;;;;;;5062144;28;20448;-79
2022/08/17 03:06:19;;;;;;;9.37;8.60;;;19.10;99.90;;;;;;5062037;28;20484;-79
2022/08/17 03:08:45;;;;;;;8.33;7.73;;;19.10;99.90;;;;;;5081204;28;20502;-79
2022/08/17 03:11:12;;;;;;;11.17;9.10;;;19.10;99.90;;;;;;5065704;28;20452;-81
2022/08/17 03:13:39;;;;;;;9.33;8.60;;;19.10;99.90;;;;;;5061464;28;20436;-79
2022/08/17 03:16:07;;;;;;;8.73;7.97;;;19.10;99.90;;;;;;5068730;28;20451;-80
2022/08/17 03:18:35;;;;;;;8.50;7.90;;;19.10;99.90;;;;;;5081635;28;20494;-80
2022/08/17 03:21:04;;;;;;;8.67;8.07;;;19.10;99.90;;;;;;5068175;28;20949;-80
2022/08/17 03:23:32;;;;;;;9.53;8.83;;;19.10;99.90;;;;;;5072014;28;20454;-79
2022/08/17 03:25:59;;;;;;;8.70;8.00;;;19.10;99.90;;;;;;5068200;28;20479;-79
2022/08/17 03:28:28;;;;;;;10.07;9.37;;;19.10;99.90;;;;;;5061135;28;20468;-80
2022/08/17 03:30:55;;;;;;;9.60;8.63;;;19.00;99.90;;;;;;5065757;28;20519;-80
2022/08/17 03:33:22;;;;;;;9.20;8.50;;;18.90;99.90;;;;;;5081414;28;20455;-80
2022/08/17 03:35:49;;;;;;;9.90;9.20;;;18.90;99.90;;;;;;5063032;28;20452;-79
2022/08/17 03:38:18;;;;;;;9.37;8.40;;;18.70;99.90;;;;;;5061211;28;20451;-80
2022/08/17 03:40:46;;;;;;;10.00;9.10;;;18.70;99.90;;;;;;5073583;28;20451;-79
2022/08/17 03:43:13;;;;;;;9.43;8.70;;;18.70;99.90;;;;;;5070239;28;20448;-80
2022/08/17 03:56:51;;;;;;;9.80;8.90;;;18.70;99.90;;;;;;5073635;28;20959;-80
2022/08/17 03:59:21;;;;;;;9.70;8.90;;;18.60;99.90;;;;;;5068814;28;20470;-79
2022/08/17 04:01:51;;;;;;;7.77;7.17;;;18.60;99.90;;;;;;5064061;28;20455;-79
2022/08/17 04:04:19;;;;;;;10.40;9.50;;;18.60;99.90;;;;;;5060597;28;20477;-80
2022/08/17 04:06:46;;;;;;;8.30;7.60;;;18.50;99.90;;;;;;5072298;28;20493;-79
2022/08/17 04:09:15;;;;;;;8.87;7.77;;;18.50;99.90;;;;;;5079995;28;20475;-80
2022/08/17 04:11:41;;;;;;;8.93;8.33;;;18.50;99.90;;;;;;5078250;28;20465;-79
2022/08/17 04:14:09;;;;;;;8.10;7.50;;;18.50;99.90;;;;;;5081075;28;20459;-79
2022/08/17 04:16:36;;;;;;;8.30;7.70;;;18.50;99.90;;;;;;5062193;28;20459;-79
2022/08/17 04:19:04;;;;;;;8.17;7.57;;;18.60;99.90;;;;;;5059816;28;20471;-80
2022/08/17 04:21:31;;;;;;;9.17;8.17;;;18.60;99.90;;;;;;5073277;28;20447;-79
2022/08/17 04:23:58;;;;;;;8.70;8.03;;;18.50;99.90;;;;;;5084951;28;20597;-79
2022/08/17 04:26:27;;;;;;;8.00;7.40;;;18.50;99.90;;;;;;5067401;28;20478;-80
2022/08/17 04:28:54;;;;;;;7.67;7.17;;;18.60;99.90;;;;;;5064240;28;20542;-79
2022/08/17 04:31:21;;;;;;;7.97;7.37;;;18.60;99.90;;;;;;5065055;28;20532;-80
2022/08/17 04:33:48;;;;;;;8.70;8.00;;;18.60;99.90;;;;;;5074686;28;20473;-79
2022/08/17 04:36:15;;;;;;;7.40;6.80;;;18.60;99.90;;;;;;5060181;28;20459;-79
2022/08/17 04:38:45;;;;;;;7.17;6.47;;;18.70;99.90;;;;;;5066251;28;20478;-79
2022/08/17 04:43:59;;;;;;;9.00;8.10;;;18.60;99.90;;;;;;5054448;28;20431;-80
2022/08/17 04:46:31;;;;;;;8.03;7.37;;;18.70;99.90;;;;;;5064004;28;20487;-79
2022/08/17 04:48:59;;;;;;;8.80;8.10;;;18.70;99.90;;;;;;5069307;28;20843;-79
2022/08/17 04:51:28;;;;;;;8.83;8.13;;;18.50;99.90;;;;;;5054156;28;20942;-80
2022/08/17 04:53:58;;;;;;;9.03;8.33;;;18.40;99.90;;;;;;5067391;28;20457;-79
2022/08/17 04:56:26;;;;;;;8.30;7.77;;;18.40;99.90;;;;;;5074092;28;20451;-79
2022/08/17 04:58:55;;;;;;;8.90;8.20;;;18.40;99.90;;;;;;5057792;28;20479;-79
2022/08/17 05:01:26;;;;;;;8.40;7.90;;;18.40;99.90;;;;;;5062144;28;20460;-80
2022/08/17 05:03:54;;;;;;;9.47;8.50;;;18.50;99.90;;;;;;5074043;28;20443;-79
2022/08/17 05:06:22;;;;;;;9.77;8.83;;;18.60;99.90;;;;;;5065938;28;20449;-79
2022/08/17 05:08:49;;;;;;;8.07;7.37;;;18.70;99.90;;;;;;5053432;28;20471;-79
2022/08/17 05:11:16;;;;;;;8.00;7.30;;;18.70;99.90;;;;;;5060051;28;20459;-79
2022/08/17 05:13:43;;;;;;;8.43;7.17;;;18.70;99.90;;;;;;5062081;28;20452;-79
2022/08/17 05:16:10;;;;;;;8.50;7.47;;;18.80;99.90;;;;;;5058194;28;20450;-79
2022/08/17 05:18:38;;;;;;;8.60;8.00;;;18.90;99.90;;;;;;5069297;28;20829;-77
2022/08/17 05:21:06;;;;;;;9.93;9.03;;;19.00;99.90;;;;;;5055226;28;20448;-80
2022/08/17 05:23:33;;;;;;;8.33;7.73;;;19.10;99.90;;;;;;5075288;28;20443;-80
2022/08/17 05:26:00;;;;;;;8.80;8.30;;;19.10;99.90;;;;;;5075820;28;20447;-79
2022/08/17 05:28:27;;;;;;;9.40;8.50;;;19.20;99.90;;;;;;5056302;28;20512;-80
2022/08/17 05:30:54;;;;;;;8.90;8.20;;;19.30;99.90;;;;;;5055700;28;20467;-80
2022/08/17 05:33:24;;;;;;;8.87;8.13;;;19.40;99.90;;;;;;5071726;28;20447;-80
2022/08/17 05:35:55;;;;;;;8.00;7.30;;;19.30;99.90;;;;;;5075177;28;20459;-80
2022/08/17 05:38:23;;;;;;;9.00;8.20;;;19.20;99.90;;;;;;5058334;28;20468;-80
2022/08/17 05:40:51;;;;;;;7.57;7.07;;;19.30;99.90;;;;;;5055505;28;20451;-80
2022/08/17 05:43:20;;;;;;;8.23;7.53;;;19.40;99.90;;;;;;5070816;28;20471;-80
2022/08/17 05:45:54;;;;;;;7.97;7.47;;;19.50;99.90;;;;;;5076041;28;20543;-80
2022/08/17 05:48:21;;;;;;;8.13;7.53;;;19.70;99.90;;;;;;5055393;28;20486;-83
2022/08/17 05:50:55;;;;;;;7.87;7.27;;;19.90;99.90;;;;;;5060315;28;20481;-83
2022/08/17 05:53:32;;;;;;;8.30;7.67;;;19.90;99.90;;;;;;5079632;28;20561;-83
2022/08/17 05:56:15;;;;;;;7.27;6.57;;;20.00;99.90;;;;;;5078063;28;20460;-83
2022/08/17 05:58:51;;;;;;;8.47;7.83;;;20.20;99.90;;;;;;5080858;28;20845;-83
2022/08/17 06:01:31;;;;;;;8.70;7.93;;;20.20;99.90;;;;;;5073437;28;20453;-83
2022/08/17 06:04:10;;;;;;;8.70;7.90;;;20.40;99.90;;;;;;5060605;28;20464;-81
2022/08/17 06:06:43;;;;;;;9.63;8.73;;;20.40;99.90;;;;;;5068307;28;20465;-83
2022/08/17 06:09:29;;;;;;;9.10;8.40;;;20.30;99.90;;;;;;5073459;28;20894;-83
2022/08/17 06:12:03;;;;;;;8.37;7.77;;;20.30;99.90;;;;;;5068208;28;20457;-81
2022/08/17 06:14:44;;;;;;;11.37;8.37;;;20.40;99.90;;;;;;5063221;28;20442;-80
2022/08/17 06:17:15;;;;;;;8.60;7.80;;;20.60;99.90;;;;;;5060506;28;20446;-81
2022/08/17 06:19:47;;;;;;;8.27;7.60;;;20.90;99.90;;;;;;5055980;28;20485;-79
2022/08/17 06:22:18;;;;;;;9.40;7.77;;;21.00;99.90;;;;;;5059175;28;20458;-79
2022/08/17 06:24:52;;;;;;;7.60;7.10;;;21.10;99.80;;;;;;5068339;28;20803;-79
2022/08/17 06:27:24;;;;;;;7.67;7.17;;;21.30;99.70;;;;;;5055911;28;20470;-79
2022/08/17 06:29:55;;;;;;;8.47;7.30;;;21.50;99.60;;;;;;5053170;28;20506;-80
2022/08/17 06:32:22;;;;;;;8.13;7.40;;;21.70;99.00;;;;;;5051524;28;20447;-79
2022/08/17 06:34:49;;;;;;;8.20;7.70;;;21.80;98.50;;;;;;5054579;28;20455;-79
2022/08/17 06:37:32;;;;;;;8.20;7.40;;;22.00;97.90;;;;;;5056239;28;20447;-82
2022/08/17 06:40:16;;;;;;;8.47;7.87;;;22.10;97.90;;;;;;5057748;28;20467;-82
2022/08/17 06:42:51;;;;;;;7.63;7.00;;;22.20;97.60;;;;;;5057478;28;20457;-82
2022/08/17 06:45:23;;;;;;;8.83;6.87;;;22.40;97.20;;;;;;5058207;28;20459;-82
2022/08/17 06:47:58;;;;;;;7.50;6.90;;;22.50;96.60;;;;;;5059825;28;20488;-84
2022/08/17 06:50:34;;;;;;;8.37;7.77;;;22.60;96.30;;;;;;5060437;28;20559;-84
2022/08/17 06:53:08;;;;;;;7.00;6.40;;;23.00;95.70;;;;;;5078021;28;20459;-84
2022/08/17 06:55:45;;;;;;;8.17;7.47;;;23.20;95.60;;;;;;5078304;28;20455;-82
2022/08/17 06:58:14;;;;;;;8.17;7.50;;;23.50;94.50;;;;;;5079569;28;20443;-84
2022/08/17 07:00:44;;;;;;;8.07;7.30;;;23.70;94.50;;;;;;5079533;28;20452;-83
2022/08/17 07:03:17;;;;;;;7.47;6.93;;;24.00;93.90;;;;;;5080232;28;20454;-84
2022/08/17 07:05:47;;;;;;;8.00;6.60;;;24.30;93.80;;;;;;5064155;28;20462;-83
2022/08/17 07:08:22;;;;;;;8.20;7.60;;;24.50;93.40;;;;;;5058210;28;20496;-82
2022/08/17 07:10:54;;;;;;;8.00;7.40;;;24.70;93.00;;;;;;5072321;28;20451;-83
2022/08/17 07:13:31;;;;;;;10.20;8.57;;;24.80;92.50;;;;;;5059621;28;20461;-82
2022/08/17 07:16:07;;;;;;;8.57;7.70;;;24.80;92.90;;;;;;5070381;28;20457;-83
2022/08/17 07:18:34;;;;;;;8.17;7.40;;;24.80;93.00;;;;;;5051393;28;20997;-81
2022/08/17 07:21:12;;;;;;;9.13;8.33;;;24.80;92.90;;;;;;5061142;28;20462;-85
2022/08/17 07:23:56;;;;;;;8.13;6.77;;;24.80;92.90;;;;;;5056008;28;20986;-82
2022/08/17 07:26:24;;;;;;;7.97;7.40;;;24.80;92.60;;;;;;5054094;28;20453;-83
2022/08/17 07:28:51;;;;;;;7.47;6.60;;;24.80;92.60;;;;;;5057190;28;20496;-84
2022/08/17 07:31:19;;;;;;;9.03;8.23;;;24.90;92.40;;;;;;5056728;28;20450;-83
2022/08/17 07:34:01;;;;;;;7.70;7.00;;;24.90;91.90;;;;;;5037294;28;20467;-84
2022/08/17 07:36:32;;;;;;;6.80;6.27;;;24.90;92.30;;;;;;5036933;28;20458;-80
2022/08/17 07:39:00;;;;;;;7.37;6.33;;;24.80;91.40;;;;;;5070075;28;20557;-81
2022/08/17 07:41:31;;;;;;;8.07;6.60;;;25.00;91.40;;;;;;5075738;28;20452;-82
2022/08/17 07:43:57;;;;;;;8.13;7.60;;;25.00;91.50;;;;;;5075929;28;20459;-82
2022/08/17 07:49:21;;;;;;;8.40;7.70;;;25.00;91.20;;;;;;5075632;28;20487;-84
2022/08/17 07:51:58;;;;;;;8.10;7.50;;;25.10;90.90;;;;;;5076067;28;20452;-83
2022/08/17 07:54:30;;;;;;;8.10;7.30;;;25.10;90.90;;;;;;5069858;28;20488;-83
2022/08/17 07:57:00;;;;;;;6.30;5.80;;;25.20;90.80;;;;;;5061244;28;20453;-82
2022/08/17 07:59:29;;;;;;;8.13;7.37;;;25.30;89.60;;;;;;5062276;28;20474;-78
2022/08/17 08:02:04;;;;;;;6.60;6.20;;;25.40;88.60;;;;;;5058517;28;20475;-79
2022/08/17 08:04:35;;;;;;;7.83;6.70;;;25.50;88.10;;;;;;5078162;28;20453;-79
2022/08/17 08:07:05;;;;;;;8.00;7.33;;;25.50;89.00;;;;;;5058754;28;20478;-79
2022/08/17 08:09:35;;;;;;;8.07;7.07;;;25.60;87.00;;;;;;5062136;28;20487;-80
2022/08/17 08:12:23;;;;;;;6.67;6.27;;;25.80;86.30;;;;;;5074646;28;20451;-79
2022/08/17 08:14:57;;;;;;;6.97;6.50;;;26.00;85.80;;;;;;5058883;28;20514;-78
2022/08/17 08:17:28;;;;;;;7.50;7.00;;;26.10;85.20;;;;;;5069898;28;20454;-78
2022/08/17 08:19:57;;;;;;;7.47;6.83;;;26.20;86.10;;;;;;5060851;28;20520;-79
2022/08/17 08:22:30;;;;;;;6.93;6.33;;;26.30;85.50;;;;;;5059793;28;20450;-82
2022/08/17 08:25:15;;;;;;;6.80;6.40;;;26.40;83.70;;;;;;5070121;28;20530;-79
2022/08/17 08:27:55;;;;;;;11.00;8.47;;;26.20;84.20;;;;;;5079169;28;20568;-80
2022/08/17 08:30:22;;;;;;;8.20;7.50;;;26.30;84.30;;;;;;5060183;28;20471;-79
2022/08/17 08:33:04;;;;;;;6.53;6.03;;;26.30;83.10;;;;;;5073727;28;20455;-78
2022/08/17 08:35:33;;;;;;;6.43;6.03;;;26.30;82.30;;;;;;5079419;28;20963;-78
2022/08/17 08:38:10;;;;;;;6.27;5.87;;;26.10;82.80;;;;;;5078342;28;20993;-78
2022/08/17 08:40:48;;;;;;;7.30;6.70;;;26.30;82.30;;;;;;5079291;28;20455;-78
2022/08/17 08:43:26;;;;;;;8.20;7.50;;;26.30;82.00;;;;;;5078586;28;20447;-78
2022/08/17 08:46:02;;;;;;;7.70;7.20;;;26.10;82.80;;;;;;5078967;28;20454;-78
2022/08/17 08:49:02;;;;;;;8.77;7.30;;;25.90;83.50;;;;;;5078251;28;20483;-78
2022/08/17 08:51:38;;;;;;;8.60;7.80;;;25.70;85.10;;;;;;5078693;28;20458;-77
2022/08/17 08:54:15;;;;;;;7.93;7.33;;;25.60;86.00;;;;;;5078407;28;20454;-78
2022/08/17 08:56:46;;;;;;;8.80;8.20;;;25.70;85.60;;;;;;5078411;28;20473;-78
2022/08/17 08:59:24;;;;;;;7.97;7.37;;;25.40;86.20;;;;;;5077462;28;20472;-78
2022/08/17 09:02:02;;;;;;;8.63;7.90;;;25.20;86.90;;;;;;5077933;28;20457;-78
2022/08/17 09:04:45;;;;;;;8.43;7.80;;;25.20;89.30;;;;;;5078617;28;20469;-77
2022/08/17 09:07:27;;;;;;;7.67;7.17;;;25.10;91.00;;;;;;5077689;28;20454;-78
2022/08/17 09:10:01;;;;;;;7.60;7.03;;;25.00;90.70;;;;;;5077790;28;20475;-78
2022/08/17 09:12:36;;;;;;;8.43;7.83;;;25.00;91.90;;;;;;5078708;28;20448;-78
2022/08/17 09:15:13;;;;;;;10.10;8.30;;;25.00;93.60;;;;;;5078962;28;20456;-77
2022/08/17 09:17:49;;;;;;;8.93;8.23;;;24.90;93.60;;;;;;5077947;28;20456;-78
2022/08/17 09:20:23;;;;;;;7.80;7.20;;;24.70;93.00;;;;;;5077973;28;20476;-78
2022/08/17 09:22:56;;;;;;;8.30;7.67;;;24.70;93.80;;;;;;5078083;28;20942;-78
2022/08/17 09:25:27;;;;;;;8.63;7.93;;;24.60;94.60;;;;;;5077802;28;20457;-77
2022/08/17 09:27:58;;;;;;;9.37;8.47;;;24.60;95.10;;;;;;5077645;28;20481;-76
2022/08/17 09:30:26;;;;;;;9.23;8.70;;;24.50;95.20;;;;;;5077650;28;20474;-77
2022/08/17 09:32:58;;;;;;;9.73;9.03;;;24.30;96.40;;;;;;5076907;28;20447;-78
2022/08/17 09:35:31;;;;;;;8.23;7.53;;;24.20;96.80;;;;;;5075638;28;20535;-77
2022/08/17 09:38:02;;;;;;;9.23;8.60;;;23.90;97.90;;;;;;5076057;28;20730;-78
2022/08/17 09:40:35;;;;;;;9.63;8.63;;;23.90;98.50;;;;;;5077272;28;20444;-78
2022/08/17 09:43:07;;;;;;;9.67;8.97;;;23.90;98.60;;;;;;5077962;28;20448;-78
2022/08/17 09:45:41;;;;;;;10.17;9.43;;;24.10;98.30;;;;;;5077598;28;20449;-77
2022/08/17 09:48:14;;;;;;;9.87;8.87;;;24.30;98.30;;;;;;5076885;28;20509;-77
2022/08/17 09:50:47;;;;;;;8.83;8.23;;;24.20;98.30;;;;;;5076076;28;20463;-78
2022/08/17 09:53:14;;;;;;;9.83;9.23;;;24.10;98.20;;;;;;5075883;28;20453;-77
2022/08/17 09:56:01;;;;;;;10.23;9.17;;;24.30;99.90;;;;;;5075208;28;20453;-77
2022/08/17 09:58:42;;;;;;;10.83;9.77;;;24.20;99.90;;;;;;5074713;28;20554;-76
2022/08/17 10:01:20;;;;;;;10.67;9.87;;;24.20;99.90;;;;;;5074753;28;20459;-77
2022/08/17 10:04:25;;;;;;;7.63;7.00;;;24.20;99.90;;;;;;5075800;28;20448;-77
2022/08/17 10:07:01;;;;;;;7.97;7.17;;;24.10;99.10;;;;;;5028448;28;20479;-78
2022/08/17 10:09:48;;;;;;;7.80;7.10;;;24.10;98.30;;;;;;5076219;28;20500;-78
2022/08/17 10:12:26;;;;;;;8.80;7.90;;;24.10;97.40;;;;;;5076396;28;20455;-77
2022/08/17 10:15:13;;;;;;;7.20;6.70;;;24.30;98.20;;;;;;5076098;28;20460;-77
2022/08/17 10:17:45;;;;;;;7.77;7.20;;;24.60;96.30;;;;;;5075960;28;20457;-77
2022/08/17 10:20:16;;;;;;;7.03;6.53;;;24.90;97.30;;;;;;5075707;28;20484;-78
2022/08/17 10:28:41;;;;;;;6.97;6.37;;;25.40;93.40;;;;;;4989686;28;20504;-81
2022/08/17 10:31:10;;;;;;;6.43;5.83;;;25.60;91.60;;;;;;4994510;28;20491;-78
2022/08/17 10:33:49;;;;;;;6.83;6.30;;;25.60;91.50;;;;;;5034103;28;20467;-82
2022/08/17 10:36:23;;;;;;;7.43;6.70;;;25.70;90.30;;;;;;5065658;28;20448;-81
2022/08/17 10:54:47;;;;;;;6.07;5.70;;;25.40;86.40;;;;;;3382883;26;20502;-83
2022/08/17 10:57:41;;;;;;;5.10;4.70;;;25.40;85.30;;;;;;5058131;28;20454;-84
2022/08/17 11:00:14;;;;;;;5.67;5.17;;;24.90;88.80;;;;;;5059508;28;20467;-86
2022/08/17 11:02:48;;;;;;;5.23;4.90;;;24.70;90.00;;;;;;5056604;28;20452;-85
2022/08/17 11:05:41;;;;;;;4.93;4.63;;;24.80;90.20;;;;;;5047478;28;20452;-83
2022/08/17 11:08:45;;;;;;;5.47;5.07;;;24.50;90.00;;;;;;5055350;28;20448;-84
2022/08/17 11:11:37;;;;;;;7.33;6.57;;;24.30;90.70;;;;;;5012764;28;20533;-82
2022/08/17 11:14:17;;;;;;;6.03;5.63;;;24.00;91.70;;;;;;5061428;28;20463;-81
2022/08/17 11:16:58;;;;;;;6.03;5.53;;;23.80;93.00;;;;;;5061845;28;20495;-82
2022/08/17 11:19:47;;;;;;;6.80;6.20;;;23.50;93.70;;;;;;5060914;28;20468;-80
2022/08/17 11:22:50;;;;;;;5.87;5.13;;;23.40;94.20;;;;;;5061886;28;20456;-82
2022/08/17 11:25:18;;;;;;;6.03;5.53;;;23.20;94.30;;;;;;5055855;28;20448;-82
2022/08/17 11:27:52;;;;;;;6.80;6.17;;;23.10;94.80;;;;;;5060851;28;20452;-81
2022/08/17 11:30:42;;;;;;;5.77;5.30;;;23.10;95.30;;;;;;5063049;28;20880;-82
2022/08/17 11:33:43;;;;;;;5.97;5.57;;;23.10;95.60;;;;;;5064501;28;21316;-82
2022/08/17 11:36:21;;;;;;;5.73;5.37;;;23.10;96.00;;;;;;5060232;28;20498;-83
2022/08/17 11:38:56;;;;;;;6.00;5.60;;;23.00;95.90;;;;;;5054072;28;20973;-83
2022/08/17 11:41:30;;;;;;;5.23;4.73;;;23.00;96.40;;;;;;5054185;28;20446;-83
2022/08/17 11:44:09;;;;;;;4.93;4.33;;;23.00;95.60;;;;;;5058272;28;20824;-82
2022/08/17 11:52:46;;;;;;;5.40;5.10;;;23.00;95.40;;;;;;5052389;28;20513;-84
2022/08/17 11:55:51;;;;;;;6.80;5.30;;;23.10;95.90;;;;;;5056644;28;20464;-84
2022/08/17 11:58:48;;;;;;;5.30;4.90;;;23.10;96.20;;;;;;5056455;28;20824;-84
2022/08/17 12:01:51;;;;;;;5.57;5.17;;;23.00;96.60;;;;;;4974634;28;20432;-85
2022/08/17 12:04:26;;;;;;;5.77;5.37;;;23.10;96.50;;;;;;5056490;28;20527;-84
2022/08/17 12:07:17;;;;;;;5.30;4.90;;;23.30;95.60;;;;;;5047803;28;20467;-85
2022/08/17 12:09:48;;;;;;;5.20;4.90;;;23.50;95.20;;;;;;5040384;28;20488;-84
2022/08/17 12:12:18;;;;;;;5.13;4.60;;;23.70;94.30;;;;;;5061869;28;20464;-84
2022/08/17 12:14:51;;;;;;;4.73;4.43;;;23.80;94.20;;;;;;5057347;28;20459;-82
2022/08/17 12:17:22;;;;;;;5.23;4.83;;;24.10;93.80;;;;;;5057924;28;20444;-80
2022/08/17 12:19:49;;;;;;;5.47;5.17;;;24.30;93.20;;;;;;5057061;28;20470;-81
2022/08/17 12:22:24;;;;;;;5.00;4.60;;;24.70;93.00;;;;;;5058390;28;20482;-81
2022/08/17 12:24:58;;;;;;;5.03;4.73;;;25.00;91.90;;;;;;5057230;28;20451;-80
2022/08/17 12:27:30;;;;;;;5.57;5.10;;;25.10;91.10;;;;;;5057095;28;20476;-81
2022/08/17 12:29:58;;;;;;;4.83;4.40;;;25.50;91.00;;;;;;5057295;28;20486;-81
2022/08/17 12:32:33;;;;;;;4.93;4.63;;;25.70;88.50;;;;;;5057084;28;20458;-81
2022/08/17 12:35:01;;;;;;;4.87;4.50;;;25.90;87.60;;;;;;5057143;28;20458;-81
2022/08/17 12:37:31;;;;;;;5.00;4.60;;;26.00;85.60;;;;;;5056795;28;20451;-81
2022/08/17 12:40:01;;;;;;;5.43;4.93;;;26.40;86.00;;;;;;5056696;28;20560;-81
2022/08/17 12:42:31;;;;;;;4.80;4.50;;;26.80;83.00;;;;;;5055933;28;20453;-81
2022/08/17 12:44:59;;;;;;;4.57;4.30;;;27.00;82.30;;;;;;5057048;28;20512;-81
2022/08/17 12:47:28;;;;;;;5.03;4.63;;;27.10;79.50;;;;;;5056741;28;20463;-81
2022/08/17 12:50:07;;;;;;;5.40;4.90;;;27.10;77.10;;;;;;5056939;28;20490;-80
2022/08/17 12:52:39;;;;;;;4.77;4.47;;;27.40;76.60;;;;;;5056664;28;21034;-80
2022/08/17 12:55:12;;;;;;;5.67;5.13;;;28.10;76.80;;;;;;5056661;28;20522;-81
2022/08/17 12:57:43;;;;;;;5.53;5.03;;;29.10;74.10;;;;;;5057009;28;20461;-82
2022/08/17 13:00:16;;;;;;;5.30;4.90;;;30.50;71.60;;;;;;5056660;28;20475;-82
2022/08/17 13:02:47;;;;;;;4.57;4.27;;;32.00;61.30;;;;;;5056989;28;20792;-82
2022/08/17 13:05:24;;;;;;;5.40;5.07;;;33.00;56.70;;;;;;5057061;28;20456;-82
2022/08/17 13:07:52;;;;;;;5.40;5.10;;;33.90;51.30;;;;;;5056470;28;20456;-82
2022/08/17 13:10:23;;;;;;;5.70;5.40;;;34.80;47.80;;;;;;5056835;28;20546;-82
2022/08/17 13:12:51;;;;;;;5.07;4.67;;;34.80;45.40;;;;;;5056627;28;20456;-82
2022/08/17 13:15:28;;;;;;;5.23;4.93;;;34.70;43.90;;;;;;5057399;28;20448;-81
2022/08/17 13:18:03;;;;;;;5.20;4.90;;;35.00;44.40;;;;;;5057107;28;20448;-82
2022/08/17 13:20:31;;;;;;;5.17;4.87;;;35.40;42.70;;;;;;5057418;28;20455;-82
2022/08/17 13:23:02;;;;;;;5.17;4.77;;;34.90;44.50;;;;;;5056797;28;20448;-83
2022/08/17 13:25:30;;;;;;;6.00;5.60;;;33.60;46.00;;;;;;5056859;28;20456;-82
2022/08/17 13:27:57;;;;;;;6.07;5.57;;;33.30;46.10;;;;;;5056350;28;20455;-82
2022/08/17 13:30:30;;;;;;;4.50;4.30;;;32.90;44.90;;;;;;5056923;28;20495;-82
2022/08/17 13:32:59;;;;;;;5.43;4.97;;;32.80;44.60;;;;;;5057165;28;20462;-81
2022/08/17 13:35:40;;;;;;;5.03;4.73;;;33.10;45.70;;;;;;5057142;28;20459;-83
2022/08/17 13:38:09;;;;;;;5.07;4.67;;;34.00;44.50;;;;;;5056757;28;20459;-81
2022/08/17 13:40:40;;;;;;;12.77;5.47;;;34.40;44.40;;;;;;5057552;28;20463;-83
2022/08/17 13:43:08;;;;;;;5.40;5.00;;;34.50;42.70;;;;;;5057058;28;20514;-82
2022/08/17 13:45:52;;;;;;;5.17;4.77;;;34.70;44.40;;;;;;5056834;28;20518;-83
2022/08/17 13:48:26;;;;;;;5.23;4.93;;;35.00;42.70;;;;;;5053830;28;20518;-83
2022/08/17 13:51:13;;;;;;;5.07;4.77;;;35.20;42.00;;;;;;5057918;28;20483;-83
2022/08/17 13:53:54;;;;;;;4.77;4.47;;;35.30;40.00;;;;;;5056477;28;20469;-83
2022/08/17 13:56:29;;;;;;;4.40;4.20;;;35.50;41.60;;;;;;5057379;28;20452;-83